sensor_id;sensor_type;location;lat;lon;timestamp;pressure;altitude;pressure_sealevel;temperature;humidity
21828;BME280;11076;47.942;11.804;2023-08-07T00:03:54;94021.13;;;11.53;94.21
21828;BME280;11076;47.942;11.804;2023-08-07T00:08:57;94026.94;;;11.27;95.59
21828;BME280;11076;47.942;11.804;2023-08-07T00:13:59;94025.31;;;11.26;96.08
21828;BME280;11076;47.942;11.804;2023-08-07T00:19:03;94026.38;;;11.37;96.06
21828;BME280;11076;47.942;11.804;2023-08-07T00:24:05;94028.47;;;11.34;95.42
21828;BME280;11076;47.942;11.804;2023-08-07T00:29:07;94036.28;;;11.36;95.58
21828;BME280;11076;47.942;11.804;2023-08-07T00:34:10;94039.53;;;11.26;96.43
21828;BME280;11076;47.942;11.804;2023-08-07T00:39:13;94044.13;;;11.07;97.66
21828;BME280;11076;47.942;11.804;2023-08-07T00:44:15;94055.91;;;11.18;97.93
21828;BME280;11076;47.942;11.804;2023-08-07T00:49:18;94047.03;;;11.06;98.14
21828;BME280;11076;47.942;11.804;2023-08-07T00:54:21;94040.44;;;11.20;97.08
21828;BME280;11076;47.942;11.804;2023-08-07T00:59:24;94044.75;;;11.21;96.40
21828;BME280;11076;47.942;11.804;2023-08-07T01:04:26;94049.97;;;11.16;96.71
21828;BME280;11076;47.942;11.804;2023-08-07T01:09:29;94051.00;;;11.15;95.83
21828;BME280;11076;47.942;11.804;2023-08-07T01:14:42;94045.16;;;10.94;97.06
21828;BME280;11076;47.942;11.804;2023-08-07T01:19:51;94058.22;;;11.03;97.14
21828;BME280;11076;47.942;11.804;2023-08-07T01:24:54;94063.41;;;10.98;97.86
21828;BME280;11076;47.942;11.804;2023-08-07T01:35:56;94078.63;;;10.85;99.34
21828;BME280;11076;47.942;11.804;2023-08-07T01:41:01;94077.88;;;10.78;100.00
21828;BME280;11076;47.942;11.804;2023-08-07T01:46:04;94076.72;;;10.74;100.00
21828;BME280;11076;47.942;11.804;2023-08-07T01:51:08;94067.28;;;10.71;100.00
21828;BME280;11076;47.942;11.804;2023-08-07T01:56:11;94080.19;;;10.63;100.00
21828;BME280;11076;47.942;11.804;2023-08-07T02:01:13;94079.66;;;10.54;100.00
21828;BME280;11076;47.942;11.804;2023-08-07T02:06:16;94082.00;;;10.50;100.00
21828;BME280;11076;47.942;11.804;2023-08-07T02:11:19;94085.75;;;10.61;100.00
21828;BME280;11076;47.942;11.804;2023-08-07T02:16:22;94088.38;;;10.49;100.00
21828;BME280;11076;47.942;11.804;2023-08-07T02:21:24;94088.59;;;10.78;100.00
21828;BME280;11076;47.942;11.804;2023-08-07T02:26:27;94093.06;;;10.66;100.00
21828;BME280;11076;47.942;11.804;2023-08-07T02:31:29;94087.13;;;10.64;100.00
21828;BME280;11076;47.942;11.804;2023-08-07T02:36:31;94083.72;;;10.75;100.00
21828;BME280;11076;47.942;11.804;2023-08-07T02:41:35;94096.50;;;10.73;100.00
21828;BME280;11076;47.942;11.804;2023-08-07T02:46:37;94093.22;;;10.71;100.00
21828;BME280;11076;47.942;11.804;2023-08-07T02:51:40;94100.91;;;10.79;100.00
21828;BME280;11076;47.942;11.804;2023-08-07T02:56:42;94093.00;;;10.72;100.00
21828;BME280;11076;47.942;11.804;2023-08-07T03:01:44;94102.88;;;10.72;100.00
21828;BME280;11076;47.942;11.804;2023-08-07T03:06:47;94101.09;;;10.66;100.00
21828;BME280;11076;47.942;11.804;2023-08-07T03:11:49;94107.25;;;10.66;100.00
21828;BME280;11076;47.942;11.804;2023-08-07T03:16:52;94108.91;;;10.67;100.00
21828;BME280;11076;47.942;11.804;2023-08-07T03:21:54;94113.44;;;10.67;100.00
21828;BME280;11076;47.942;11.804;2023-08-07T03:26:57;94111.34;;;10.69;100.00
21828;BME280;11076;47.942;11.804;2023-08-07T03:32:00;94107.03;;;10.68;100.00
21828;BME280;11076;47.942;11.804;2023-08-07T03:37:02;94118.25;;;10.77;100.00
21828;BME280;11076;47.942;11.804;2023-08-07T03:42:05;94122.63;;;10.71;100.00
21828;BME280;11076;47.942;11.804;2023-08-07T03:47:07;94123.94;;;10.80;100.00
21828;BME280;11076;47.942;11.804;2023-08-07T03:52:10;94133.28;;;10.89;100.00
21828;BME280;11076;47.942;11.804;2023-08-07T03:57:13;94128.84;;;10.83;100.00
21828;BME280;11076;47.942;11.804;2023-08-07T04:02:15;94141.44;;;10.94;100.00
21828;BME280;11076;47.942;11.804;2023-08-07T04:07:19;94144.25;;;11.00;99.51
21828;BME280;11076;47.942;11.804;2023-08-07T04:12:22;94145.53;;;10.97;99.32
21828;BME280;11076;47.942;11.804;2023-08-07T04:17:24;94148.59;;;10.82;99.87
21828;BME280;11076;47.942;11.804;2023-08-07T04:22:26;94145.91;;;11.01;99.03
21828;BME280;11076;47.942;11.804;2023-08-07T04:27:29;94163.56;;;11.02;98.64
21828;BME280;11076;47.942;11.804;2023-08-07T04:32:31;94146.41;;;11.21;97.40
21828;BME280;11076;47.942;11.804;2023-08-07T04:37:34;94159.69;;;11.16;97.61
21828;BME280;11076;47.942;11.804;2023-08-07T04:42:36;94162.03;;;11.24;96.67
21828;BME280;11076;47.942;11.804;2023-08-07T04:47:38;94160.38;;;11.23;95.94
21828;BME280;11076;47.942;11.804;2023-08-07T04:52:41;94173.06;;;11.28;95.31
21828;BME280;11076;47.942;11.804;2023-08-07T04:57:43;94169.41;;;11.41;94.16
21828;BME280;11076;47.942;11.804;2023-08-07T05:02:46;94166.53;;;11.54;93.05
21828;BME280;11076;47.942;11.804;2023-08-07T05:07:50;94165.47;;;11.67;91.26
21828;BME280;11076;47.942;11.804;2023-08-07T05:12:52;94178.28;;;11.65;87.97
21828;BME280;11076;47.942;11.804;2023-08-07T05:17:58;94171.06;;;11.65;86.75
21828;BME280;11076;47.942;11.804;2023-08-07T05:23:00;94174.22;;;11.62;85.90
21828;BME280;11076;47.942;11.804;2023-08-07T05:28:03;94197.25;;;11.63;86.24
21828;BME280;11076;47.942;11.804;2023-08-07T05:33:05;94189.34;;;11.68;85.61
21828;BME280;11076;47.942;11.804;2023-08-07T05:38:08;94202.53;;;11.82;84.71
21828;BME280;11076;47.942;11.804;2023-08-07T05:43:10;94201.47;;;11.83;83.62
21828;BME280;11076;47.942;11.804;2023-08-07T05:48:15;94216.91;;;11.99;82.83
21828;BME280;11076;47.942;11.804;2023-08-07T05:53:19;94215.66;;;12.02;81.74
21828;BME280;11076;47.942;11.804;2023-08-07T05:58:21;94229.03;;;12.25;80.18
21828;BME280;11076;47.942;11.804;2023-08-07T06:03:24;94223.22;;;12.17;78.50
21828;BME280;11076;47.942;11.804;2023-08-07T06:08:26;94235.81;;;12.28;78.28
21828;BME280;11076;47.942;11.804;2023-08-07T06:13:29;94241.03;;;12.46;76.94
21828;BME280;11076;47.942;11.804;2023-08-07T06:18:37;94252.56;;;12.59;76.22
21828;BME280;11076;47.942;11.804;2023-08-07T06:23:39;94233.22;;;12.57;74.56
21828;BME280;11076;47.942;11.804;2023-08-07T06:28:42;94243.78;;;12.87;75.32
21828;BME280;11076;47.942;11.804;2023-08-07T06:33:45;94247.88;;;13.01;75.32
21828;BME280;11076;47.942;11.804;2023-08-07T06:38:47;94239.53;;;13.03;74.30
21828;BME280;11076;47.942;11.804;2023-08-07T06:43:49;94225.88;;;13.16;73.58
21828;BME280;11076;47.942;11.804;2023-08-07T06:48:53;94231.56;;;13.31;71.92
21828;BME280;11076;47.942;11.804;2023-08-07T06:53:56;94243.44;;;13.64;70.73
21828;BME280;11076;47.942;11.804;2023-08-07T06:58:58;94240.22;;;13.96;69.95
21828;BME280;11076;47.942;11.804;2023-08-07T07:04:01;94248.31;;;14.86;67.06
21828;BME280;11076;47.942;11.804;2023-08-07T07:09:03;94246.81;;;14.73;65.01
21828;BME280;11076;47.942;11.804;2023-08-07T07:14:06;94258.94;;;14.93;65.29
21828;BME280;11076;47.942;11.804;2023-08-07T07:19:08;94263.06;;;15.44;63.78
21828;BME280;11076;47.942;11.804;2023-08-07T07:24:11;94262.84;;;15.73;61.51
21828;BME280;11076;47.942;11.804;2023-08-07T07:29:14;94274.44;;;16.28;59.20
21828;BME280;11076;47.942;11.804;2023-08-07T07:34:16;94272.94;;;16.80;58.86
21828;BME280;11076;47.942;11.804;2023-08-07T07:39:18;94274.97;;;17.00;56.43
21828;BME280;11076;47.942;11.804;2023-08-07T07:44:21;94287.41;;;17.06;57.48
21828;BME280;11076;47.942;11.804;2023-08-07T07:49:23;94280.44;;;16.73;56.59
21828;BME280;11076;47.942;11.804;2023-08-07T07:54:27;94286.22;;;16.86;57.69
21828;BME280;11076;47.942;11.804;2023-08-07T07:59:30;94309.75;;;16.26;55.88
21828;BME280;11076;47.942;11.804;2023-08-07T08:04:32;94311.72;;;16.36;56.11
21828;BME280;11076;47.942;11.804;2023-08-07T08:09:37;94316.63;;;15.85;56.67
21828;BME280;11076;47.942;11.804;2023-08-07T08:14:39;94332.00;;;16.12;55.94
21828;BME280;11076;47.942;11.804;2023-08-07T08:19:51;94328.56;;;16.48;54.57
21828;BME280;11076;47.942;11.804;2023-08-07T08:24:54;94328.69;;;16.64;55.01
21828;BME280;11076;47.942;11.804;2023-08-07T08:29:56;94321.41;;;16.64;53.69
21828;BME280;11076;47.942;11.804;2023-08-07T08:34:59;94300.66;;;17.07;52.49
21828;BME280;11076;47.942;11.804;2023-08-07T08:40:02;94333.44;;;16.52;53.38
21828;BME280;11076;47.942;11.804;2023-08-07T08:45:05;94338.47;;;16.10;56.07
21828;BME280;11076;47.942;11.804;2023-08-07T08:50:10;94334.41;;;16.08;55.61
21828;BME280;11076;47.942;11.804;2023-08-07T08:55:13;94339.56;;;16.15;55.66
21828;BME280;11076;47.942;11.804;2023-08-07T09:00:16;94351.28;;;16.25;54.45
21828;BME280;11076;47.942;11.804;2023-08-07T09:05:27;94347.50;;;16.26;54.21
21828;BME280;11076;47.942;11.804;2023-08-07T09:10:32;94350.97;;;16.22;54.39
21828;BME280;11076;47.942;11.804;2023-08-07T09:15:35;94357.69;;;16.46;54.26
21828;BME280;11076;47.942;11.804;2023-08-07T09:20:41;94340.13;;;17.14;53.71
21828;BME280;11076;47.942;11.804;2023-08-07T09:25:44;94347.88;;;17.47;53.96
21828;BME280;11076;47.942;11.804;2023-08-07T09:30:47;94349.88;;;17.67;52.42
21828;BME280;11076;47.942;11.804;2023-08-07T09:35:51;94345.00;;;17.17;53.41
21828;BME280;11076;47.942;11.804;2023-08-07T09:40:53;94350.53;;;16.95;53.25
21828;BME280;11076;47.942;11.804;2023-08-07T09:46:03;94347.97;;;17.63;53.70
21828;BME280;11076;47.942;11.804;2023-08-07T09:51:05;94349.03;;;17.14;54.55
21828;BME280;11076;47.942;11.804;2023-08-07T09:56:08;94343.94;;;17.23;53.99
21828;BME280;11076;47.942;11.804;2023-08-07T10:01:15;94336.00;;;18.17;52.60
21828;BME280;11076;47.942;11.804;2023-08-07T10:06:18;94343.03;;;18.13;52.95
21828;BME280;11076;47.942;11.804;2023-08-07T10:11:21;94335.38;;;17.94;53.50
21828;BME280;11076;47.942;11.804;2023-08-07T10:16:25;94332.81;;;18.92;50.95
21828;BME280;11076;47.942;11.804;2023-08-07T10:21:28;94347.13;;;18.31;50.81
21828;BME280;11076;47.942;11.804;2023-08-07T10:26:33;94357.53;;;17.86;52.11
21828;BME280;11076;47.942;11.804;2023-08-07T10:31:36;94365.16;;;18.04;52.11
21828;BME280;11076;47.942;11.804;2023-08-07T10:36:40;94369.00;;;18.24;52.71
21828;BME280;11076;47.942;11.804;2023-08-07T10:41:47;94350.38;;;17.59;53.11
21828;BME280;11076;47.942;11.804;2023-08-07T10:46:52;94348.91;;;17.94;51.63
21828;BME280;11076;47.942;11.804;2023-08-07T10:51:55;94354.91;;;18.12;51.57
21828;BME280;11076;47.942;11.804;2023-08-07T10:56:59;94336.59;;;18.55;49.96
21828;BME280;11076;47.942;11.804;2023-08-07T11:02:02;94329.00;;;18.77;51.12
21828;BME280;11076;47.942;11.804;2023-08-07T11:07:05;94324.63;;;19.33;49.95
21828;BME280;11076;47.942;11.804;2023-08-07T11:12:08;94321.31;;;19.51;49.44
21828;BME280;11076;47.942;11.804;2023-08-07T11:17:10;94317.38;;;19.93;48.31
21828;BME280;11076;47.942;11.804;2023-08-07T11:22:15;94317.81;;;19.45;48.72
21828;BME280;11076;47.942;11.804;2023-08-07T11:27:21;94344.84;;;17.92;50.69
21828;BME280;11076;47.942;11.804;2023-08-07T11:32:24;94359.66;;;16.88;53.73
21828;BME280;11076;47.942;11.804;2023-08-07T11:37:29;94346.81;;;18.17;53.46
21828;BME280;11076;47.942;11.804;2023-08-07T11:42:31;94327.41;;;18.76;51.79
21828;BME280;11076;47.942;11.804;2023-08-07T11:47:34;94329.97;;;19.53;51.58
21828;BME280;11076;47.942;11.804;2023-08-07T11:52:36;94345.13;;;19.80;50.21
21828;BME280;11076;47.942;11.804;2023-08-07T11:57:38;94333.25;;;19.50;50.66
21828;BME280;11076;47.942;11.804;2023-08-07T12:02:43;94340.22;;;19.77;50.36
21828;BME280;11076;47.942;11.804;2023-08-07T12:07:47;94351.16;;;20.21;50.85
21828;BME280;11076;47.942;11.804;2023-08-07T12:12:50;94346.47;;;20.32;48.77
21828;BME280;11076;47.942;11.804;2023-08-07T12:18:00;94330.97;;;20.38;48.46
21828;BME280;11076;47.942;11.804;2023-08-07T12:23:03;94337.22;;;20.33;48.47
21828;BME280;11076;47.942;11.804;2023-08-07T12:28:05;94345.38;;;19.78;49.20
21828;BME280;11076;47.942;11.804;2023-08-07T12:33:08;94333.31;;;19.24;49.50
21828;BME280;11076;47.942;11.804;2023-08-07T12:38:10;94337.94;;;18.73;51.19
21828;BME280;11076;47.942;11.804;2023-08-07T12:43:13;94347.94;;;18.41;52.63
21828;BME280;11076;47.942;11.804;2023-08-07T12:48:15;94356.41;;;17.24;54.76
21828;BME280;11076;47.942;11.804;2023-08-07T12:53:18;94371.81;;;16.59;56.44
21828;BME280;11076;47.942;11.804;2023-08-07T12:58:20;94376.91;;;16.55;57.44
21828;BME280;11076;47.942;11.804;2023-08-07T13:03:27;94379.56;;;16.23;59.61
21828;BME280;11076;47.942;11.804;2023-08-07T13:08:30;94387.50;;;16.35;61.75
21828;BME280;11076;47.942;11.804;2023-08-07T13:13:33;94404.09;;;16.48;60.82
21828;BME280;11076;47.942;11.804;2023-08-07T13:18:35;94443.13;;;15.52;67.55
21828;BME280;11076;47.942;11.804;2023-08-07T13:23:38;94437.44;;;15.71;69.43
21828;BME280;11076;47.942;11.804;2023-08-07T13:28:40;94446.94;;;16.94;67.74
21828;BME280;11076;47.942;11.804;2023-08-07T13:33:43;94454.81;;;17.01;67.43
21828;BME280;11076;47.942;11.804;2023-08-07T13:38:45;94456.13;;;16.71;68.18
21828;BME280;11076;47.942;11.804;2023-08-07T13:43:48;94457.28;;;16.26;67.71
21828;BME280;11076;47.942;11.804;2023-08-07T13:48:51;94468.28;;;16.41;68.66
21828;BME280;11076;47.942;11.804;2023-08-07T13:53:53;94460.94;;;15.93;70.40
21828;BME280;11076;47.942;11.804;2023-08-07T13:58:55;94459.00;;;15.88;71.50
21828;BME280;11076;47.942;11.804;2023-08-07T14:03:58;94463.69;;;15.76;72.51
21828;BME280;11076;47.942;11.804;2023-08-07T14:09:00;94468.59;;;15.62;73.68
21828;BME280;11076;47.942;11.804;2023-08-07T14:14:03;94475.88;;;15.27;75.20
21828;BME280;11076;47.942;11.804;2023-08-07T14:19:05;94480.94;;;15.07;75.28
21828;BME280;11076;47.942;11.804;2023-08-07T14:24:07;94489.59;;;15.09;76.01
21828;BME280;11076;47.942;11.804;2023-08-07T14:29:10;94490.53;;;15.54;73.37
21828;BME280;11076;47.942;11.804;2023-08-07T14:34:12;94500.75;;;16.52;68.29
21828;BME280;11076;47.942;11.804;2023-08-07T14:39:15;94491.13;;;16.61;66.23
21828;BME280;11076;47.942;11.804;2023-08-07T14:44:17;94490.97;;;16.45;67.42
21828;BME280;11076;47.942;11.804;2023-08-07T14:49:20;94492.75;;;16.62;67.83
21828;BME280;11076;47.942;11.804;2023-08-07T14:54:22;94497.81;;;16.09;68.66
21828;BME280;11076;47.942;11.804;2023-08-07T14:59:25;94518.66;;;16.36;68.97
21828;BME280;11076;47.942;11.804;2023-08-07T15:04:28;94513.63;;;16.94;67.61
21828;BME280;11076;47.942;11.804;2023-08-07T15:09:30;94518.19;;;16.00;68.50
21828;BME280;11076;47.942;11.804;2023-08-07T15:14:33;94527.41;;;15.48;70.70
21828;BME280;11076;47.942;11.804;2023-08-07T15:19:35;94535.94;;;15.11;73.21
21828;BME280;11076;47.942;11.804;2023-08-07T15:24:37;94541.63;;;14.98;74.00
21828;BME280;11076;47.942;11.804;2023-08-07T15:29:44;94561.06;;;15.00;73.67
21828;BME280;11076;47.942;11.804;2023-08-07T15:34:48;94558.34;;;15.00;73.09
21828;BME280;11076;47.942;11.804;2023-08-07T15:39:50;94566.06;;;15.42;71.96
21828;BME280;11076;47.942;11.804;2023-08-07T15:44:53;94563.97;;;16.17;69.51
21828;BME280;11076;47.942;11.804;2023-08-07T15:49:55;94579.09;;;15.96;68.07
21828;BME280;11076;47.942;11.804;2023-08-07T15:54:58;94570.88;;;15.40;68.86
21828;BME280;11076;47.942;11.804;2023-08-07T16:00:00;94568.94;;;14.89;70.81
21828;BME280;11076;47.942;11.804;2023-08-07T16:05:03;94581.72;;;15.11;71.10
21828;BME280;11076;47.942;11.804;2023-08-07T16:10:07;94569.69;;;15.30;70.69
21828;BME280;11076;47.942;11.804;2023-08-07T16:15:09;94564.53;;;15.12;71.04
21828;BME280;11076;47.942;11.804;2023-08-07T16:20:12;94564.53;;;15.46;70.26
21828;BME280;11076;47.942;11.804;2023-08-07T16:25:15;94571.56;;;15.30;70.17
21828;BME280;11076;47.942;11.804;2023-08-07T16:30:17;94575.25;;;14.95;71.26
21828;BME280;11076;47.942;11.804;2023-08-07T16:35:20;94576.09;;;15.13;70.57
21828;BME280;11076;47.942;11.804;2023-08-07T16:40:22;94582.00;;;15.26;69.41
21828;BME280;11076;47.942;11.804;2023-08-07T16:45:24;94595.34;;;15.04;69.99
21828;BME280;11076;47.942;11.804;2023-08-07T16:50:27;94596.34;;;15.15;69.88
21828;BME280;11076;47.942;11.804;2023-08-07T16:55:30;94590.59;;;15.11;70.06
21828;BME280;11076;47.942;11.804;2023-08-07T17:00:32;94595.44;;;14.81;70.91
21828;BME280;11076;47.942;11.804;2023-08-07T17:05:35;94600.28;;;14.67;72.08
21828;BME280;11076;47.942;11.804;2023-08-07T17:10:37;94610.56;;;14.70;72.48
21828;BME280;11076;47.942;11.804;2023-08-07T17:15:40;94607.28;;;14.68;72.84
21828;BME280;11076;47.942;11.804;2023-08-07T17:20:42;94596.09;;;14.88;73.07
21828;BME280;11076;47.942;11.804;2023-08-07T17:25:45;94589.13;;;14.75;73.67
21828;BME280;11076;47.942;11.804;2023-08-07T17:30:47;94604.34;;;14.69;74.83
21828;BME280;11076;47.942;11.804;2023-08-07T17:35:50;94599.25;;;14.56;75.60
21828;BME280;11076;47.942;11.804;2023-08-07T17:40:52;94604.75;;;14.49;77.07
21828;BME280;11076;47.942;11.804;2023-08-07T17:45:55;94589.63;;;14.60;76.96
21828;BME280;11076;47.942;11.804;2023-08-07T17:50:58;94598.22;;;14.86;76.28
21828;BME280;11076;47.942;11.804;2023-08-07T17:56:00;94600.63;;;14.70;76.72
21828;BME280;11076;47.942;11.804;2023-08-07T18:01:02;94604.34;;;14.69;76.75
21828;BME280;11076;47.942;11.804;2023-08-07T18:06:05;94606.38;;;14.50;77.36
21828;BME280;11076;47.942;11.804;2023-08-07T18:11:07;94606.53;;;14.32;78.31
21828;BME280;11076;47.942;11.804;2023-08-07T18:16:10;94611.47;;;14.11;79.01
21828;BME280;11076;47.942;11.804;2023-08-07T18:21:12;94616.25;;;14.09;78.76
21828;BME280;11076;47.942;11.804;2023-08-07T18:26:14;94615.69;;;13.84;79.35
21828;BME280;11076;47.942;11.804;2023-08-07T18:31:17;94622.56;;;13.80;79.02
21828;BME280;11076;47.942;11.804;2023-08-07T18:36:19;94625.38;;;13.61;78.64
21828;BME280;11076;47.942;11.804;2023-08-07T18:41:22;94619.63;;;13.58;79.05
21828;BME280;11076;47.942;11.804;2023-08-07T18:46:24;94627.69;;;13.46;78.67
21828;BME280;11076;47.942;11.804;2023-08-07T18:51:27;94630.69;;;13.38;78.63
21828;BME280;11076;47.942;11.804;2023-08-07T18:56:31;94627.88;;;13.32;78.60
21828;BME280;11076;47.942;11.804;2023-08-07T19:01:33;94631.63;;;13.31;78.33
21828;BME280;11076;47.942;11.804;2023-08-07T19:06:36;94640.41;;;13.20;78.60
21828;BME280;11076;47.942;11.804;2023-08-07T19:11:40;94646.13;;;13.12;78.92
21828;BME280;11076;47.942;11.804;2023-08-07T19:16:42;94655.34;;;13.16;78.85
21828;BME280;11076;47.942;11.804;2023-08-07T19:21:47;94654.06;;;13.19;78.88
21828;BME280;11076;47.942;11.804;2023-08-07T19:26:49;94654.16;;;13.12;79.72
21828;BME280;11076;47.942;11.804;2023-08-07T19:31:52;94649.84;;;13.11;79.45
21828;BME280;11076;47.942;11.804;2023-08-07T19:36:54;94655.81;;;13.13;79.43
21828;BME280;11076;47.942;11.804;2023-08-07T19:41:56;94654.59;;;13.09;79.81
21828;BME280;11076;47.942;11.804;2023-08-07T19:46:59;94661.25;;;13.06;79.94
21828;BME280;11076;47.942;11.804;2023-08-07T19:52:01;94658.22;;;13.03;80.28
21828;BME280;11076;47.942;11.804;2023-08-07T19:57:04;94644.78;;;13.03;80.04
21828;BME280;11076;47.942;11.804;2023-08-07T20:02:07;94658.34;;;13.08;79.76
21828;BME280;11076;47.942;11.804;2023-08-07T20:07:12;94651.75;;;13.22;78.47
21828;BME280;11076;47.942;11.804;2023-08-07T20:12:14;94658.00;;;13.35;78.06
21828;BME280;11076;47.942;11.804;2023-08-07T20:17:18;94661.97;;;13.32;77.29
21828;BME280;11076;47.942;11.804;2023-08-07T20:22:21;94658.72;;;13.42;76.58
21828;BME280;11076;47.942;11.804;2023-08-07T20:27:23;94663.06;;;13.24;76.41
21828;BME280;11076;47.942;11.804;2023-08-07T20:32:25;94652.44;;;13.18;75.54
21828;BME280;11076;47.942;11.804;2023-08-07T20:37:28;94655.88;;;12.76;76.42
21828;BME280;11076;47.942;11.804;2023-08-07T20:42:30;94663.94;;;12.58;76.57
21828;BME280;11076;47.942;11.804;2023-08-07T20:47:33;94660.69;;;12.56;77.13
21828;BME280;11076;47.942;11.804;2023-08-07T20:52:35;94657.91;;;12.25;78.63
21828;BME280;11076;47.942;11.804;2023-08-07T20:57:38;94658.56;;;12.21;78.62
21828;BME280;11076;47.942;11.804;2023-08-07T21:02:40;94651.94;;;12.23;79.28
21828;BME280;11076;47.942;11.804;2023-08-07T21:07:43;94656.94;;;12.20;79.47
21828;BME280;11076;47.942;11.804;2023-08-07T21:12:45;94645.63;;;12.36;78.92
21828;BME280;11076;47.942;11.804;2023-08-07T21:17:47;94642.34;;;12.34;78.31
21828;BME280;11076;47.942;11.804;2023-08-07T21:22:52;94647.13;;;12.32;78.61
21828;BME280;11076;47.942;11.804;2023-08-07T21:27:55;94643.69;;;12.25;79.03
21828;BME280;11076;47.942;11.804;2023-08-07T21:32:57;94638.31;;;12.25;78.68
21828;BME280;11076;47.942;11.804;2023-08-07T21:37:59;94642.66;;;12.26;78.89
21828;BME280;11076;47.942;11.804;2023-08-07T21:43:02;94637.63;;;12.29;78.50
21828;BME280;11076;47.942;11.804;2023-08-07T21:48:05;94641.97;;;12.12;78.42
21828;BME280;11076;47.942;11.804;2023-08-07T21:53:07;94640.69;;;11.96;78.87
21828;BME280;11076;47.942;11.804;2023-08-07T21:58:09;94642.91;;;11.99;79.46
21828;BME280;11076;47.942;11.804;2023-08-07T22:03:12;94636.16;;;12.15;78.97
21828;BME280;11076;47.942;11.804;2023-08-07T22:08:14;94637.13;;;12.21;79.01
21828;BME280;11076;47.942;11.804;2023-08-07T22:13:17;94643.69;;;12.25;79.33
21828;BME280;11076;47.942;11.804;2023-08-07T22:18:19;94647.09;;;12.50;78.46
21828;BME280;11076;47.942;11.804;2023-08-07T22:23:21;94647.41;;;12.61;79.32
21828;BME280;11076;47.942;11.804;2023-08-07T22:28:24;94646.97;;;12.64;79.37
21828;BME280;11076;47.942;11.804;2023-08-07T22:33:26;94622.66;;;12.59;80.66
21828;BME280;11076;47.942;11.804;2023-08-07T22:38:29;94626.13;;;12.47;81.35
21828;BME280;11076;47.942;11.804;2023-08-07T22:43:34;94617.03;;;12.48;81.62
21828;BME280;11076;47.942;11.804;2023-08-07T22:48:37;94610.91;;;12.41;81.84
21828;BME280;11076;47.942;11.804;2023-08-07T22:53:39;94623.28;;;12.42;82.47
21828;BME280;11076;47.942;11.804;2023-08-07T22:58:41;94621.63;;;12.41;82.07
21828;BME280;11076;47.942;11.804;2023-08-07T23:03:44;94624.19;;;12.36;82.71
21828;BME280;11076;47.942;11.804;2023-08-07T23:08:46;94612.47;;;12.30;82.96
21828;BME280;11076;47.942;11.804;2023-08-07T23:13:48;94616.06;;;12.24;83.00
21828;BME280;11076;47.942;11.804;2023-08-07T23:18:51;94613.72;;;12.09;82.93
21828;BME280;11076;47.942;11.804;2023-08-07T23:23:53;94620.00;;;11.78;83.05
21828;BME280;11076;47.942;11.804;2023-08-07T23:28:56;94611.72;;;11.61;83.48
21828;BME280;11076;47.942;11.804;2023-08-07T23:33:59;94617.63;;;11.45;84.48
21828;BME280;11076;47.942;11.804;2023-08-07T23:39:02;94598.03;;;11.19;84.61
21828;BME280;11076;47.942;11.804;2023-08-07T23:44:05;94599.94;;;11.12;85.39
21828;BME280;11076;47.942;11.804;2023-08-07T23:49:07;94613.84;;;10.95;86.08
21828;BME280;11076;47.942;11.804;2023-08-07T23:54:09;94604.41;;;10.93;86.34
21828;BME280;11076;47.942;11.804;2023-08-07T23:59:12;94606.22;;;10.99;86.65
